Time;durP1;ratioP1;P1;durP2;ratioP2;P2;SDS_P1;SDS_P2;PMS_P1;PMS_P2;Temp;Humidity;BMP_temperature;BMP_pressure;BME280_temperature;BME280_humidity;BME280_pressure;Samples;Min_cycle;Max_cycle;Signal;HPM_P1;HPM_P2
2021/10/27 00:15:25;;;;;;;3.53;2.40;;;8.20;99.90;;;;;;457075;260;27523;-81
2021/10/27 00:17:27;;;;;;;3.67;3.13;;;8.30;99.90;;;;;;457012;259;27721;-82
2021/10/27 00:19:28;;;;;;;3.83;3.20;;;8.30;99.90;;;;;;456968;259;28605;-81
2021/10/27 00:21:30;;;;;;;2.97;2.67;;;8.30;99.90;;;;;;456973;258;29531;-82
2021/10/27 00:23:31;;;;;;;4.43;2.67;;;8.40;99.90;;;;;;456989;256;28452;-82
2021/10/27 00:25:33;;;;;;;5.33;2.57;;;8.40;99.90;;;;;;457005;259;28489;-80
2021/10/27 00:27:34;;;;;;;2.70;2.37;;;8.40;99.90;;;;;;457137;259;28529;-80
2021/10/27 00:29:35;;;;;;;2.70;2.47;;;8.40;99.90;;;;;;456979;259;28638;-80
2021/10/27 00:31:36;;;;;;;5.03;2.60;;;8.40;99.90;;;;;;456986;259;28183;-83
2021/10/27 00:33:38;;;;;;;4.07;2.57;;;8.40;99.90;;;;;;457051;259;27567;-81
2021/10/27 00:35:39;;;;;;;2.63;2.43;;;8.40;99.90;;;;;;456979;259;27642;-80
2021/10/27 00:37:40;;;;;;;7.40;3.03;;;8.40;99.90;;;;;;456984;259;27584;-82
2021/10/27 00:39:42;;;;;;;2.97;2.63;;;8.40;99.90;;;;;;456979;259;28201;-81
2021/10/27 00:41:43;;;;;;;2.90;2.70;;;8.40;99.90;;;;;;457018;259;28070;-82
2021/10/27 00:43:44;;;;;;;4.00;3.33;;;8.40;99.90;;;;;;457011;259;27693;-81
2021/10/27 00:45:45;;;;;;;4.00;3.03;;;8.30;99.90;;;;;;456961;259;27960;-81
2021/10/27 00:47:46;;;;;;;3.40;3.10;;;8.40;99.90;;;;;;457028;259;28128;-82
2021/10/27 00:49:48;;;;;;;2.90;2.70;;;8.30;99.90;;;;;;456956;256;28148;-81
2021/10/27 00:51:49;;;;;;;4.27;2.83;;;8.30;99.90;;;;;;456979;259;28502;-79
2021/10/27 00:53:50;;;;;;;3.07;2.77;;;8.30;99.90;;;;;;456961;259;28205;-82
2021/10/27 00:55:51;;;;;;;5.17;2.93;;;8.20;99.90;;;;;;456958;259;28242;-81
2021/10/27 00:57:53;;;;;;;5.93;3.40;;;8.10;99.90;;;;;;456930;259;27912;-81
2021/10/27 00:59:54;;;;;;;3.43;3.10;;;8.10;99.90;;;;;;456963;259;28546;-82
2021/10/27 01:01:55;;;;;;;3.80;3.00;;;8.00;99.90;;;;;;457007;259;28266;-79
2021/10/27 01:03:56;;;;;;;3.80;3.30;;;8.00;99.90;;;;;;457000;259;28557;-80
2021/10/27 01:05:58;;;;;;;4.43;2.90;;;8.00;99.90;;;;;;456976;259;28699;-80
2021/10/27 01:07:59;;;;;;;3.53;3.20;;;8.00;99.90;;;;;;456924;259;28054;-81
2021/10/27 01:10:00;;;;;;;3.30;2.90;;;7.90;99.90;;;;;;456926;259;28197;-79
2021/10/27 01:12:01;;;;;;;3.43;2.67;;;7.90;99.90;;;;;;457000;259;29015;-78
2021/10/27 01:14:03;;;;;;;2.67;2.47;;;7.80;99.90;;;;;;456988;259;28301;-81
2021/10/27 01:16:04;;;;;;;2.70;2.50;;;7.80;99.90;;;;;;456985;259;28141;-79
2021/10/27 01:18:06;;;;;;;2.73;2.53;;;7.90;99.90;;;;;;457004;259;27971;-80
2021/10/27 01:20:07;;;;;;;2.57;2.23;;;8.00;99.90;;;;;;456997;259;28954;-81
2021/10/27 01:22:08;;;;;;;2.70;2.20;;;8.00;99.90;;;;;;456967;259;28379;-81
2021/10/27 01:24:09;;;;;;;2.35;2.25;;;8.10;99.90;;;;;;456962;259;28401;-82
2021/10/27 01:26:10;;;;;;;2.47;2.27;;;8.20;99.90;;;;;;457010;259;28039;-81
2021/10/27 01:28:12;;;;;;;2.73;2.20;;;8.20;99.90;;;;;;457014;259;28109;-79
2021/10/27 01:30:13;;;;;;;3.00;2.80;;;8.20;99.90;;;;;;457020;259;27913;-81
2021/10/27 01:32:15;;;;;;;2.50;2.30;;;8.30;99.90;;;;;;457015;259;28295;-81
2021/10/27 01:34:15;;;;;;;2.43;2.23;;;8.30;99.90;;;;;;457001;259;27592;-82
2021/10/27 01:36:17;;;;;;;3.03;2.50;;;8.30;99.90;;;;;;457019;259;28076;-81
2021/10/27 01:38:18;;;;;;;3.20;2.47;;;8.30;99.90;;;;;;456952;259;28124;-79
2021/10/27 01:40:19;;;;;;;2.67;2.47;;;8.40;99.90;;;;;;456975;256;28073;-81
2021/10/27 01:42:20;;;;;;;2.73;2.53;;;8.40;99.90;;;;;;456989;259;27851;-82
2021/10/27 01:44:22;;;;;;;8.40;3.00;;;8.40;99.90;;;;;;456982;256;28085;-79
2021/10/27 01:46:23;;;;;;;4.20;2.63;;;8.40;99.90;;;;;;457007;259;28140;-81
2021/10/27 01:48:24;;;;;;;2.50;2.30;;;8.50;99.90;;;;;;457004;256;28194;-79
2021/10/27 01:50:26;;;;;;;3.57;2.33;;;8.50;99.90;;;;;;457014;259;27944;-81
2021/10/27 01:52:27;;;;;;;3.20;2.50;;;8.60;99.90;;;;;;456949;259;27602;-81
2021/10/27 01:54:28;;;;;;;2.57;2.20;;;8.60;99.90;;;;;;457010;259;28141;-79
2021/10/27 01:56:29;;;;;;;2.50;2.30;;;8.60;99.90;;;;;;457027;259;28077;-80
2021/10/27 01:58:30;;;;;;;2.70;2.50;;;8.60;99.90;;;;;;457021;259;28228;-80
2021/10/27 02:00:32;;;;;;;3.07;2.67;;;8.70;99.90;;;;;;456999;256;28579;-81
2021/10/27 02:02:33;;;;;;;3.10;2.47;;;8.70;99.90;;;;;;457113;259;28434;-81
2021/10/27 02:04:34;;;;;;;2.83;2.63;;;8.70;99.90;;;;;;457083;259;28605;-79
2021/10/27 02:06:35;;;;;;;3.23;2.90;;;8.70;99.90;;;;;;457012;259;28219;-81
2021/10/27 02:08:37;;;;;;;3.53;3.20;;;8.70;99.90;;;;;;457193;256;28138;-80
2021/10/27 02:10:38;;;;;;;2.97;2.70;;;8.80;99.90;;;;;;456997;259;28264;-81
2021/10/27 02:12:39;;;;;;;4.43;2.93;;;8.70;99.90;;;;;;456963;259;28115;-80
2021/10/27 02:14:40;;;;;;;3.03;2.83;;;8.70;99.90;;;;;;456993;259;27876;-78
2021/10/27 02:16:42;;;;;;;3.03;2.80;;;8.70;99.90;;;;;;456934;259;28216;-81
2021/10/27 02:18:43;;;;;;;4.17;2.63;;;8.70;99.90;;;;;;456981;259;28149;-81
2021/10/27 02:20:45;;;;;;;3.43;2.67;;;8.70;99.90;;;;;;456980;259;27807;-80
2021/10/27 02:22:45;;;;;;;3.20;2.80;;;8.70;99.90;;;;;;456967;259;28084;-80
2021/10/27 02:24:47;;;;;;;2.93;2.70;;;8.70;99.90;;;;;;457032;259;28112;-79
2021/10/27 02:26:51;;;;;;;2.73;2.53;;;8.70;99.90;;;;;;457432;256;28074;-80
2021/10/27 02:28:49;;;;;;;3.60;2.67;;;8.70;99.90;;;;;;456509;260;28119;-81
2021/10/27 02:30:52;;;;;;;3.20;2.87;;;8.70;99.90;;;;;;457138;259;28143;-80
2021/10/27 02:32:54;;;;;;;2.63;2.40;;;8.70;99.90;;;;;;456686;259;28115;-82
2021/10/27 02:34:55;;;;;;;2.80;2.60;;;8.70;99.90;;;;;;457023;259;28113;-80
2021/10/27 02:36:56;;;;;;;2.97;2.67;;;8.80;99.90;;;;;;456989;259;28110;-82
2021/10/27 02:38:59;;;;;;;3.13;2.83;;;8.70;99.90;;;;;;456980;259;28581;-83
2021/10/27 02:40:59;;;;;;;3.53;2.70;;;8.70;99.90;;;;;;456953;260;28618;-80
2021/10/27 02:43:00;;;;;;;3.73;3.23;;;8.70;99.90;;;;;;457024;259;28727;-82
2021/10/27 02:45:01;;;;;;;5.97;3.03;;;8.80;99.90;;;;;;457024;259;28705;-81
2021/10/27 02:47:03;;;;;;;2.57;2.37;;;8.80;99.90;;;;;;457303;259;28652;-78
2021/10/27 02:49:04;;;;;;;3.03;2.83;;;8.80;99.90;;;;;;456972;259;28185;-82
2021/10/27 02:51:05;;;;;;;3.00;2.70;;;8.80;99.90;;;;;;457007;259;28091;-80
2021/10/27 02:53:06;;;;;;;3.30;2.60;;;8.80;99.90;;;;;;457021;259;27702;-82
2021/10/27 02:55:11;;;;;;;3.77;2.80;;;8.80;99.90;;;;;;457071;256;27995;-80
2021/10/27 02:57:13;;;;;;;4.23;3.20;;;8.80;99.90;;;;;;457029;256;28200;-82
2021/10/27 02:59:14;;;;;;;3.73;3.00;;;8.80;99.90;;;;;;457018;259;28145;-81
2021/10/27 03:01:16;;;;;;;4.87;3.00;;;8.80;99.90;;;;;;457030;259;27934;-79
2021/10/27 03:03:16;;;;;;;3.30;3.00;;;8.80;99.90;;;;;;457012;259;28051;-82
2021/10/27 03:05:18;;;;;;;3.40;3.10;;;8.80;99.90;;;;;;457004;259;28115;-81
2021/10/27 03:07:19;;;;;;;4.37;2.70;;;8.80;99.90;;;;;;457053;259;28283;-82
2021/10/27 03:09:20;;;;;;;3.43;2.70;;;8.80;99.90;;;;;;457054;259;28080;-81
2021/10/27 03:11:21;;;;;;;3.20;3.00;;;8.80;99.90;;;;;;457049;259;27733;-80
2021/10/27 03:13:23;;;;;;;2.80;2.60;;;8.80;99.90;;;;;;457040;259;28224;-81
2021/10/27 03:15:24;;;;;;;2.70;2.50;;;8.80;99.90;;;;;;457026;259;28206;-79
2021/10/27 03:17:25;;;;;;;3.30;3.00;;;8.80;99.90;;;;;;457004;259;29421;-80
2021/10/27 03:19:26;;;;;;;3.63;2.80;;;8.80;99.90;;;;;;457043;259;29339;-81
2021/10/27 03:21:28;;;;;;;3.00;2.50;;;8.80;99.90;;;;;;457052;256;28549;-79
2021/10/27 03:23:29;;;;;;;3.63;2.90;;;8.70;99.90;;;;;;457040;259;28638;-81
2021/10/27 03:25:30;;;;;;;2.70;2.50;;;8.60;99.90;;;;;;457019;259;28064;-80
2021/10/27 03:27:32;;;;;;;3.37;3.00;;;8.60;99.90;;;;;;457032;256;28119;-82
2021/10/27 03:29:33;;;;;;;3.00;2.77;;;8.60;99.90;;;;;;457028;256;27976;-82
2021/10/27 03:31:34;;;;;;;3.73;2.60;;;8.50;99.90;;;;;;457033;259;27719;-81
2021/10/27 03:33:35;;;;;;;2.97;2.77;;;8.50;99.90;;;;;;456985;256;28024;-82
2021/10/27 03:35:36;;;;;;;3.60;2.90;;;8.50;99.90;;;;;;456974;259;28099;-81
2021/10/27 03:37:38;;;;;;;3.43;3.07;;;8.50;99.90;;;;;;457086;259;28460;-79
2021/10/27 03:39:39;;;;;;;4.13;3.43;;;8.40;99.90;;;;;;456980;259;28077;-81
2021/10/27 03:41:41;;;;;;;7.77;3.80;;;8.40;99.90;;;;;;457087;259;27843;-81
2021/10/27 03:43:42;;;;;;;4.63;3.67;;;8.30;99.90;;;;;;456968;259;27984;-82
2021/10/27 03:45:43;;;;;;;2.87;2.67;;;8.30;99.90;;;;;;457013;259;28207;-81
2021/10/27 03:47:44;;;;;;;3.03;2.80;;;8.40;99.90;;;;;;457022;259;28106;-79
2021/10/27 03:49:46;;;;;;;3.53;3.23;;;8.30;99.90;;;;;;456976;259;28065;-81
2021/10/27 03:51:47;;;;;;;3.70;2.83;;;8.40;99.90;;;;;;457063;259;27686;-81
2021/10/27 03:53:48;;;;;;;4.50;3.20;;;8.30;99.90;;;;;;456992;259;28516;-82
2021/10/27 03:55:49;;;;;;;4.00;3.13;;;8.30;99.90;;;;;;457033;259;28588;-80
2021/10/27 03:57:50;;;;;;;3.50;2.70;;;8.20;99.90;;;;;;457040;259;28471;-80
2021/10/27 03:59:51;;;;;;;3.43;3.13;;;8.20;99.90;;;;;;457007;259;28675;-82
2021/10/27 04:01:53;;;;;;;3.10;2.80;;;8.20;99.90;;;;;;457066;256;28429;-81
2021/10/27 04:03:54;;;;;;;3.33;3.13;;;8.20;99.90;;;;;;457056;259;29200;-82
2021/10/27 04:05:56;;;;;;;3.70;3.33;;;8.20;99.90;;;;;;457033;259;28048;-81
2021/10/27 04:07:56;;;;;;;3.70;3.30;;;8.20;99.90;;;;;;457042;259;28096;-80
2021/10/27 04:09:58;;;;;;;4.10;3.40;;;8.20;99.90;;;;;;457072;259;27814;-82
2021/10/27 04:11:59;;;;;;;4.43;3.17;;;8.10;99.90;;;;;;457038;259;28103;-80
2021/10/27 04:14:00;;;;;;;4.93;3.70;;;8.10;99.90;;;;;;457138;259;28234;-80
2021/10/27 04:16:01;;;;;;;3.53;3.23;;;8.20;99.90;;;;;;457122;259;28284;-81
2021/10/27 04:18:03;;;;;;;4.80;3.80;;;8.20;99.90;;;;;;457030;259;28101;-79
2021/10/27 04:20:05;;;;;;;4.00;3.60;;;8.20;99.90;;;;;;457014;259;29068;-81
2021/10/27 04:22:05;;;;;;;4.43;3.90;;;8.20;99.90;;;;;;457024;259;28096;-81
2021/10/27 04:24:06;;;;;;;4.40;3.70;;;8.20;99.90;;;;;;457052;259;28004;-79
2021/10/27 04:26:08;;;;;;;6.17;3.90;;;8.20;99.90;;;;;;457065;256;28131;-82
2021/10/27 04:28:09;;;;;;;4.20;3.20;;;8.20;99.90;;;;;;457053;259;28062;-81
2021/10/27 04:30:10;;;;;;;5.70;3.40;;;8.20;99.90;;;;;;457033;259;28168;-82
2021/10/27 04:32:11;;;;;;;4.20;3.30;;;8.20;99.90;;;;;;457051;259;28516;-81
2021/10/27 04:34:13;;;;;;;4.30;3.60;;;8.10;99.90;;;;;;457152;256;28666;-79
2021/10/27 04:36:15;;;;;;;3.87;3.57;;;8.20;99.90;;;;;;457105;256;28598;-81
2021/10/27 04:38:16;;;;;;;3.70;3.40;;;8.20;99.90;;;;;;457046;259;28623;-79
2021/10/27 04:40:16;;;;;;;4.37;3.30;;;8.20;99.90;;;;;;457048;259;28525;-81
2021/10/27 04:42:18;;;;;;;6.00;3.00;;;8.20;99.90;;;;;;457054;259;28215;-80
2021/10/27 04:44:19;;;;;;;3.63;3.20;;;8.10;99.90;;;;;;457068;259;28076;-80
2021/10/27 04:46:20;;;;;;;4.10;3.70;;;8.10;99.90;;;;;;457137;259;28150;-80
2021/10/27 04:48:21;;;;;;;3.87;3.50;;;8.00;99.90;;;;;;452528;261;28061;-81
2021/10/27 04:50:23;;;;;;;4.17;3.40;;;8.00;99.90;;;;;;456601;256;27743;-81
2021/10/27 04:52:24;;;;;;;3.57;3.27;;;8.00;99.90;;;;;;457046;259;28193;-82
2021/10/27 04:54:25;;;;;;;4.03;3.43;;;8.00;99.90;;;;;;457055;259;28198;-79
2021/10/27 04:56:26;;;;;;;4.10;3.43;;;8.00;99.90;;;;;;456992;259;29102;-82
2021/10/27 04:58:30;;;;;;;4.00;3.50;;;7.90;99.90;;;;;;457054;259;28135;-81
2021/10/27 05:00:29;;;;;;;5.80;3.80;;;7.90;99.90;;;;;;456917;260;28104;-82
2021/10/27 05:02:30;;;;;;;4.10;3.70;;;7.80;99.90;;;;;;456992;259;27959;-80
2021/10/27 05:04:31;;;;;;;3.67;3.37;;;7.80;99.90;;;;;;457021;259;27852;-80
2021/10/27 05:06:34;;;;;;;4.10;3.80;;;7.70;99.90;;;;;;457048;259;28073;-81
2021/10/27 05:08:35;;;;;;;3.43;3.13;;;7.70;99.90;;;;;;456907;260;28627;-80
2021/10/27 05:10:35;;;;;;;3.70;3.40;;;7.70;99.90;;;;;;456922;260;29547;-81
2021/10/27 05:12:36;;;;;;;3.40;2.93;;;7.60;99.90;;;;;;457013;259;28481;-79
2021/10/27 05:14:38;;;;;;;4.97;3.20;;;7.60;99.90;;;;;;456995;259;28545;-79
2021/10/27 05:16:39;;;;;;;3.43;3.23;;;7.60;99.90;;;;;;456930;259;29384;-81
2021/10/27 05:18:40;;;;;;;3.00;2.80;;;7.60;99.90;;;;;;456903;259;29037;-81
2021/10/27 05:20:41;;;;;;;3.00;2.70;;;7.60;99.90;;;;;;456982;259;27703;-82
2021/10/27 05:22:43;;;;;;;3.30;3.00;;;7.50;99.90;;;;;;456960;259;29084;-81
2021/10/27 05:24:44;;;;;;;3.60;3.30;;;7.50;99.90;;;;;;456957;259;28810;-80
2021/10/27 05:26:45;;;;;;;3.30;3.10;;;7.50;99.90;;;;;;457357;259;28049;-79
2021/10/27 05:28:46;;;;;;;3.35;3.15;;;7.50;99.90;;;;;;457587;256;27823;-79
2021/10/27 05:30:49;;;;;;;3.83;3.40;;;7.40;99.90;;;;;;457114;256;27623;-79
2021/10/27 05:32:49;;;;;;;3.30;3.00;;;7.40;99.90;;;;;;456932;259;28219;-81
2021/10/27 05:34:50;;;;;;;3.40;3.10;;;7.30;99.90;;;;;;457030;259;28232;-80
2021/10/27 05:36:51;;;;;;;3.70;2.80;;;7.30;99.90;;;;;;456935;259;28079;-82
2021/10/27 05:38:53;;;;;;;3.40;3.15;;;7.20;99.90;;;;;;456917;259;28609;-82
2021/10/27 05:40:54;;;;;;;3.37;3.10;;;7.20;99.90;;;;;;457005;259;27610;-79
2021/10/27 05:42:55;;;;;;;3.27;2.97;;;7.30;99.90;;;;;;457012;259;27571;-80
2021/10/27 05:44:59;;;;;;;3.20;2.97;;;7.20;99.90;;;;;;456933;259;29125;-79
2021/10/27 05:46:58;;;;;;;3.17;2.87;;;7.20;99.90;;;;;;456821;256;27666;-81
2021/10/27 05:49:05;;;;;;;3.13;2.80;;;7.20;99.90;;;;;;456971;259;28338;-82
2021/10/27 05:55:36;;;;;;;3.87;3.12;;;7.20;99.90;;;;;;456738;260;27677;-80
2021/10/27 05:57:40;;;;;;;3.50;3.23;;;7.20;99.90;;;;;;456911;259;27592;-79
2021/10/27 05:59:42;;;;;;;3.55;3.17;;;7.10;99.90;;;;;;456903;259;29074;-80
2021/10/27 06:01:42;;;;;;;2.90;2.70;;;7.00;99.90;;;;;;456933;259;27653;-80
2021/10/27 06:03:44;;;;;;;2.95;2.75;;;7.00;99.90;;;;;;456909;256;27606;-81
2021/10/27 06:05:45;;;;;;;3.42;3.12;;;7.00;99.90;;;;;;456933;256;28094;-79
2021/10/27 06:07:46;;;;;;;2.87;2.67;;;6.90;99.90;;;;;;456942;256;28034;-79
2021/10/27 06:09:55;;;;;;;3.37;3.05;;;6.90;99.90;;;;;;457034;256;28029;-78
2021/10/27 06:12:01;;;;;;;3.30;3.05;;;6.90;99.90;;;;;;456974;256;27614;-77
2021/10/27 06:13:58;;;;;;;2.90;2.70;;;6.90;99.90;;;;;;456691;260;27631;-79
2021/10/27 06:16:00;;;;;;;3.25;3.00;;;6.90;99.90;;;;;;456979;256;27616;-78
2021/10/27 06:18:01;;;;;;;3.10;2.87;;;7.00;99.90;;;;;;456961;259;28106;-77
2021/10/27 06:20:02;;;;;;;3.37;2.78;;;6.80;99.90;;;;;;456988;259;28021;-80
2021/10/27 06:22:03;;;;;;;2.80;2.60;;;6.80;99.90;;;;;;456989;259;27618;-76
2021/10/27 06:24:05;;;;;;;3.12;2.80;;;6.80;99.90;;;;;;457019;259;27595;-79
2021/10/27 06:26:06;;;;;;;2.80;2.60;;;6.80;99.90;;;;;;457188;259;27691;-78
2021/10/27 06:28:11;;;;;;;3.25;2.95;;;6.80;99.90;;;;;;457145;256;29108;-79
2021/10/27 06:30:19;;;;;;;3.03;2.83;;;6.80;99.90;;;;;;456797;260;27566;-79
2021/10/27 06:32:26;;;;;;;4.82;3.78;;;6.90;99.90;;;;;;456697;260;27685;-79
2021/10/27 06:34:25;;;;;;;3.30;3.00;;;6.80;99.90;;;;;;456172;260;27971;-78
2021/10/27 06:36:35;;;;;;;3.95;3.60;;;6.90;99.90;;;;;;456432;260;28424;-80
2021/10/27 06:38:45;;;;;;;3.40;3.20;;;6.90;99.90;;;;;;456409;260;27584;-78
2021/10/27 06:47:30;;;;;;;4.43;3.55;;;7.10;99.90;;;;;;456996;260;27575;-79
2021/10/27 06:49:31;;;;;;;4.25;3.78;;;7.10;99.90;;;;;;456954;260;27668;-78
2021/10/27 06:51:31;;;;;;;3.40;3.10;;;7.20;99.90;;;;;;457017;260;27556;-80
2021/10/27 06:53:32;;;;;;;3.28;3.05;;;7.20;99.90;;;;;;457064;259;29093;-78
2021/10/27 06:55:36;;;;;;;3.28;2.92;;;7.20;99.90;;;;;;457523;259;27631;-79
2021/10/27 06:57:35;;;;;;;3.10;2.90;;;7.20;99.90;;;;;;457289;260;27696;-81
2021/10/27 06:59:39;;;;;;;4.40;3.70;;;7.30;99.90;;;;;;457239;259;29112;-81
2021/10/27 07:03:58;;;;;;;2.87;2.67;;;7.40;99.90;;;;;;457215;256;27633;-81
2021/10/27 07:05:52;;;;;;;3.47;3.17;;;7.40;99.90;;;;;;455944;260;27571;-81
2021/10/27 07:16:59;;;;;;;2.80;2.60;;;7.70;99.90;;;;;;454587;259;27803;-80
2021/10/27 07:19:00;;;;;;;3.27;3.07;;;7.70;99.90;;;;;;457203;259;28187;-80
2021/10/27 07:21:01;;;;;;;4.20;3.80;;;7.70;99.90;;;;;;457250;259;28061;-81
2021/10/27 07:23:03;;;;;;;3.13;2.83;;;7.70;99.90;;;;;;457289;256;27944;-81
2021/10/27 07:25:04;;;;;;;3.33;3.13;;;7.70;99.90;;;;;;457231;259;28192;-82
2021/10/27 07:27:07;;;;;;;3.03;2.37;;;7.80;99.90;;;;;;457290;259;28009;-82
2021/10/27 07:29:06;;;;;;;2.77;2.57;;;7.80;99.90;;;;;;457123;260;28123;-79
2021/10/27 07:31:11;;;;;;;4.60;2.70;;;7.90;99.90;;;;;;457272;259;28581;-82
2021/10/27 07:33:09;;;;;;;3.00;2.70;;;7.90;99.90;;;;;;457066;260;28627;-82
2021/10/27 07:40:33;;;;;;;2.60;2.40;;;8.30;99.90;;;;;;457119;260;28175;-81
2021/10/27 07:41:41;;;;;;;3.10;2.47;;;8.50;99.90;;;;;;454921;260;27782;-77
2021/10/27 07:43:42;;;;;;;2.90;2.70;;;8.60;99.90;;;;;;457159;259;28554;-81
2021/10/27 07:45:44;;;;;;;3.10;2.60;;;8.70;99.90;;;;;;457117;259;28980;-82
2021/10/27 07:47:45;;;;;;;3.07;2.87;;;8.80;99.90;;;;;;457108;259;28476;-81
2021/10/27 07:49:47;;;;;;;2.87;2.67;;;8.90;99.90;;;;;;457077;259;28505;-83
2021/10/27 07:51:50;;;;;;;4.20;3.30;;;9.00;99.90;;;;;;457063;260;28201;-82
2021/10/27 07:53:52;;;;;;;3.00;2.80;;;9.20;99.90;;;;;;457088;260;28195;-79
2021/10/27 07:55:51;;;;;;;3.00;2.80;;;9.20;99.90;;;;;;456924;260;28129;-83
2021/10/27 07:57:51;;;;;;;3.30;3.00;;;9.30;99.90;;;;;;457125;259;28104;-82
2021/10/27 07:59:52;;;;;;;3.10;2.80;;;9.40;99.90;;;;;;457114;259;28083;-82
2021/10/27 08:01:54;;;;;;;3.20;2.90;;;9.40;99.90;;;;;;457184;256;28221;-82
2021/10/27 08:03:55;;;;;;;2.97;2.73;;;9.50;99.90;;;;;;457158;259;28061;-81
2021/10/27 08:06:07;;;;;;;3.67;2.53;;;9.60;99.90;;;;;;457157;259;28121;-82
2021/10/27 08:08:06;;;;;;;3.97;3.50;;;9.60;99.90;;;;;;456993;260;28233;-83
2021/10/27 08:10:07;;;;;;;3.13;2.83;;;9.80;99.90;;;;;;457112;259;28148;-82
2021/10/27 08:12:08;;;;;;;5.23;3.10;;;9.80;99.90;;;;;;457152;259;28217;-82
2021/10/27 08:14:11;;;;;;;3.73;3.27;;;9.90;99.90;;;;;;457179;259;28032;-82
2021/10/27 08:16:11;;;;;;;3.20;2.90;;;9.90;99.90;;;;;;457144;260;27701;-81
2021/10/27 08:18:13;;;;;;;3.70;3.20;;;10.00;99.90;;;;;;457158;259;28054;-82
2021/10/27 08:20:14;;;;;;;2.63;2.43;;;10.00;99.90;;;;;;457071;259;28346;-81
2021/10/27 08:22:15;;;;;;;3.30;2.73;;;10.00;99.90;;;;;;457224;259;28154;-79
2021/10/27 08:24:22;;;;;;;2.93;2.73;;;10.10;99.90;;;;;;457217;259;28471;-81
2021/10/27 08:26:21;;;;;;;5.43;3.63;;;10.00;99.90;;;;;;456686;260;28483;-82
2021/10/27 08:28:19;;;;;;;4.37;3.33;;;10.00;99.90;;;;;;456881;260;28677;-82
2021/10/27 08:30:22;;;;;;;3.87;3.40;;;10.00;99.90;;;;;;457111;259;28644;-83
2021/10/27 08:32:40;;;;;;;5.30;3.60;;;10.10;99.90;;;;;;456992;260;28097;-80
2021/10/27 08:34:34;;;;;;;5.47;4.20;;;10.10;99.90;;;;;;455689;260;28272;-83
2021/10/27 08:36:23;;;;;;;5.07;3.70;;;10.20;99.90;;;;;;456218;260;28126;-81
2021/10/27 08:38:25;;;;;;;4.83;3.93;;;10.20;99.90;;;;;;457114;259;28088;-82
2021/10/27 08:40:27;;;;;;;4.93;4.10;;;10.20;99.90;;;;;;457123;259;28208;-80
2021/10/27 08:42:27;;;;;;;7.00;4.37;;;10.30;99.90;;;;;;457110;259;28185;-81
2021/10/27 08:44:29;;;;;;;5.23;3.80;;;10.30;99.90;;;;;;457171;259;28044;-81
2021/10/27 08:46:30;;;;;;;4.37;3.97;;;10.30;99.90;;;;;;457134;259;28103;-81
2021/10/27 08:48:31;;;;;;;4.27;3.70;;;10.30;99.90;;;;;;457140;259;29648;-83
2021/10/27 08:50:32;;;;;;;4.17;3.77;;;10.30;99.90;;;;;;457179;256;28542;-80
2021/10/27 08:52:34;;;;;;;5.93;4.07;;;10.30;99.90;;;;;;457178;259;28670;-79
2021/10/27 08:54:35;;;;;;;6.03;4.30;;;10.30;99.90;;;;;;457165;256;28191;-81
2021/10/27 08:56:39;;;;;;;11.10;4.63;;;10.30;99.90;;;;;;457156;259;28161;-83
2021/10/27 08:58:41;;;;;;;5.70;4.60;;;10.30;99.90;;;;;;456997;260;28144;-82
2021/10/27 09:00:46;;;;;;;5.60;3.93;;;10.30;99.90;;;;;;456951;260;28081;-82
2021/10/27 09:06:59;;;;;;;5.23;3.93;;;10.50;99.90;;;;;;457179;259;28223;-82
2021/10/27 09:36:41;;;;;;;4.77;4.00;;;10.80;99.90;;;;;;457188;259;28559;-82
2021/10/27 09:40:51;;;;;;;7.50;4.80;;;10.90;99.90;;;;;;457197;259;28251;-79
2021/10/27 09:45:09;;;;;;;6.83;4.23;;;10.80;99.90;;;;;;457210;259;28131;-82
2021/10/27 10:05:24;;;;;;;3.93;3.53;;;11.20;99.90;;;;;;457162;260;28615;-83
2021/10/27 10:07:25;;;;;;;4.77;3.97;;;11.20;99.90;;;;;;457160;259;28821;-81
2021/10/27 10:09:27;;;;;;;4.07;3.57;;;11.20;99.90;;;;;;457316;259;28657;-81
2021/10/27 10:11:27;;;;;;;6.13;3.67;;;11.40;99.90;;;;;;457033;259;28595;-81
2021/10/27 10:13:30;;;;;;;6.13;4.20;;;11.40;99.90;;;;;;457207;259;28165;-82
2021/10/27 10:15:37;;;;;;;5.50;4.27;;;11.50;99.90;;;;;;457086;256;28501;-82
2021/10/27 10:17:32;;;;;;;4.27;3.87;;;11.60;99.90;;;;;;456596;260;28365;-81
2021/10/27 10:19:33;;;;;;;4.50;3.90;;;11.60;99.90;;;;;;457177;259;28301;-82
2021/10/27 10:21:34;;;;;;;3.63;3.33;;;11.60;99.90;;;;;;457189;259;28423;-82
2021/10/27 10:23:35;;;;;;;6.97;3.93;;;11.70;99.90;;;;;;457191;259;28821;-80
2021/10/27 10:25:36;;;;;;;4.80;3.77;;;11.70;99.90;;;;;;457201;259;28258;-82
2021/10/27 10:27:37;;;;;;;6.77;3.87;;;11.80;99.90;;;;;;457166;259;28604;-81
2021/10/27 10:29:44;;;;;;;4.00;3.47;;;11.90;99.90;;;;;;457176;259;28608;-82
2021/10/27 10:31:43;;;;;;;4.50;3.43;;;11.90;99.90;;;;;;456941;260;28954;-82
2021/10/27 10:33:45;;;;;;;5.50;3.20;;;11.90;99.90;;;;;;457156;259;28532;-82
2021/10/27 10:35:59;;;;;;;4.53;3.40;;;12.00;99.90;;;;;;457110;259;29029;-81
2021/10/27 10:40:07;;;;;;;3.60;3.30;;;12.00;99.90;;;;;;457157;259;28346;-82
2021/10/27 10:42:20;;;;;;;3.43;3.00;;;12.20;99.90;;;;;;456618;260;28548;-80
2021/10/27 10:58:09;;;;;;;3.10;2.80;;;11.70;99.90;;;;;;460854;258;29103;-80
2021/10/27 11:00:17;;;;;;;3.43;2.87;;;12.10;99.90;;;;;;460036;258;28529;-81
2021/10/27 11:11:48;;;;;;;7.90;3.53;;;12.00;99.90;;;;;;460719;258;28212;-82
2021/10/27 11:37:52;;;;;;;2.50;2.30;;;12.20;99.90;;;;;;460699;258;28427;-81
2021/10/27 11:39:49;;;;;;;4.97;2.50;;;12.30;99.90;;;;;;460005;258;28134;-81
2021/10/27 11:41:56;;;;;;;3.00;2.40;;;12.40;99.90;;;;;;460443;258;28944;-81
2021/10/27 11:43:58;;;;;;;2.50;2.20;;;12.40;99.90;;;;;;460314;258;28927;-82
2021/10/27 11:45:58;;;;;;;2.60;2.40;;;12.50;99.90;;;;;;460300;258;28162;-81
2021/10/27 11:47:59;;;;;;;2.60;2.40;;;12.50;99.90;;;;;;460471;258;28326;-83
2021/10/27 11:49:57;;;;;;;3.13;2.40;;;12.40;99.90;;;;;;460500;258;28162;-82
2021/10/27 11:51:59;;;;;;;2.83;2.37;;;12.40;99.90;;;;;;460712;258;28387;-81
2021/10/27 11:54:00;;;;;;;4.40;2.33;;;12.50;99.90;;;;;;460704;258;28132;-83
2021/10/27 11:56:01;;;;;;;2.63;2.43;;;12.50;99.90;;;;;;460776;254;28535;-82
2021/10/27 11:58:04;;;;;;;3.50;2.10;;;12.50;99.90;;;;;;460781;258;28977;-80
2021/10/27 12:00:06;;;;;;;2.23;2.03;;;12.50;99.90;;;;;;460625;258;28828;-82
2021/10/27 12:02:05;;;;;;;2.30;2.10;;;12.60;99.90;;;;;;460570;258;29080;-82
2021/10/27 12:04:08;;;;;;;3.20;2.40;;;12.70;99.90;;;;;;460592;258;28476;-84
2021/10/27 12:06:13;;;;;;;2.17;1.97;;;12.80;99.90;;;;;;460517;258;28724;-82
2021/10/27 12:08:28;;;;;;;3.00;2.30;;;13.00;99.90;;;;;;460343;256;28383;-81
2021/10/27 12:10:41;;;;;;;2.83;2.10;;;13.10;99.90;;;;;;460073;258;28711;-80
2021/10/27 12:12:33;;;;;;;2.80;2.20;;;13.20;99.90;;;;;;459666;258;28098;-83
2021/10/27 12:14:56;;;;;;;2.63;2.20;;;13.30;99.90;;;;;;460547;258;28593;-83
2021/10/27 12:16:59;;;;;;;2.30;2.10;;;13.20;99.90;;;;;;459913;258;28951;-83
2021/10/27 12:18:46;;;;;;;2.13;2.00;;;13.20;99.90;;;;;;459776;258;28349;-82
2021/10/27 12:20:47;;;;;;;2.10;2.00;;;13.10;99.90;;;;;;460799;258;28809;-82
2021/10/27 12:22:48;;;;;;;1.70;1.60;;;13.10;99.90;;;;;;460813;258;28953;-82
2021/10/27 12:24:49;;;;;;;2.07;1.97;;;13.10;99.90;;;;;;460785;254;28657;-82
2021/10/27 12:26:59;;;;;;;1.93;1.73;;;13.20;99.90;;;;;;460785;258;28871;-82
2021/10/27 12:28:55;;;;;;;2.20;2.00;;;13.20;99.90;;;;;;460188;258;28877;-83
2021/10/27 12:30:53;;;;;;;1.80;1.70;;;13.10;99.90;;;;;;460567;258;28981;-80
2021/10/27 12:32:54;;;;;;;1.87;1.77;;;13.10;99.90;;;;;;460682;258;28937;-81
2021/10/27 12:34:57;;;;;;;2.40;1.90;;;;;;;;;;460711;258;28365;-82
2021/10/27 12:37:00;;;;;;;2.23;2.13;;;13.10;99.90;;;;;;460683;258;27644;-82
2021/10/27 12:39:01;;;;;;;2.40;1.93;;;;;;;;;;460613;258;29244;-82
2021/10/27 12:41:02;;;;;;;2.70;2.00;;;13.20;99.90;;;;;;460739;258;27021;-82
2021/10/27 12:43:03;;;;;;;2.27;2.07;;;13.20;99.90;;;;;;460719;258;28248;-83
2021/10/27 12:45:04;;;;;;;2.17;2.03;;;13.20;99.90;;;;;;460625;254;28291;-82
2021/10/27 12:47:06;;;;;;;2.50;2.30;;;13.30;99.90;;;;;;460724;254;28521;-81
2021/10/27 12:49:07;;;;;;;2.17;1.73;;;13.30;99.90;;;;;;460726;254;28970;-83
2021/10/27 12:51:11;;;;;;;2.40;2.10;;;13.40;99.90;;;;;;460737;258;28984;-82
2021/10/27 12:53:09;;;;;;;2.17;1.97;;;13.50;99.90;;;;;;460502;258;29075;-82
2021/10/27 12:55:11;;;;;;;2.40;2.20;;;13.50;99.90;;;;;;460798;254;28721;-83
2021/10/27 12:57:12;;;;;;;3.43;2.00;;;13.50;99.90;;;;;;460784;258;28328;-80
2021/10/27 12:59:13;;;;;;;2.57;2.00;;;13.50;99.90;;;;;;460812;254;28307;-83
2021/10/27 13:01:15;;;;;;;2.13;1.90;;;13.50;99.90;;;;;;460755;258;28512;-83
2021/10/27 13:05:42;;;;;;;2.37;2.10;;;13.60;99.90;;;;;;460852;258;28753;-82
2021/10/27 13:07:38;;;;;;;2.67;2.20;;;;;;;;;;460320;258;28418;-82